createdAt,value
2023-05-10T00:00:42.914Z,1071.00
2023-05-10T00:01:42.980Z,1077.00
2023-05-10T00:02:43.149Z,1071.00
2023-05-10T00:03:43.110Z,1066.00
2023-05-10T00:04:43.000Z,1071.00
2023-05-10T00:05:43.014Z,1068.00
2023-05-10T00:06:43.043Z,1089.00
2023-05-10T00:07:43.044Z,1071.00
2023-05-10T00:08:43.086Z,1066.00
2023-05-10T00:09:43.093Z,1069.00
2023-05-10T00:10:43.116Z,1065.00
2023-05-10T00:11:43.143Z,1071.00
2023-05-10T00:12:43.188Z,1066.00
2023-05-10T00:13:43.187Z,1077.00
2023-05-10T00:14:43.200Z,1065.00
2023-05-10T00:15:43.220Z,1062.00
2023-05-10T00:16:43.255Z,1063.00
2023-05-10T00:17:43.322Z,1052.00
2023-05-10T00:18:43.293Z,1067.00
2023-05-10T00:19:43.310Z,1069.00
2023-05-10T00:20:43.315Z,1063.00
2023-05-10T00:21:43.330Z,1065.00
2023-05-10T00:22:43.350Z,1052.00
2023-05-10T00:23:43.380Z,1054.00
2023-05-10T00:24:43.401Z,1045.00
2023-05-10T00:25:43.478Z,1064.00
2023-05-10T00:26:43.439Z,1062.00
2023-05-10T00:27:43.456Z,1052.00
2023-05-10T00:28:43.476Z,1058.00
2023-05-10T00:29:43.496Z,1064.00
2023-05-10T00:30:43.513Z,1059.00
2023-05-10T00:31:43.595Z,1047.00
2023-05-10T00:32:43.562Z,1039.00
2023-05-10T00:33:43.579Z,1046.00
2023-05-10T00:34:43.586Z,1045.00
2023-05-10T00:35:43.608Z,1035.00
2023-05-10T00:36:43.629Z,1055.00
2023-05-10T00:37:43.646Z,1049.00
2023-05-10T00:38:43.670Z,1043.00
2023-05-10T00:39:43.686Z,1052.00
2023-05-10T00:40:43.782Z,1041.00
2023-05-10T00:41:43.723Z,1043.00
2023-05-10T00:42:43.744Z,1048.00
2023-05-10T00:43:43.769Z,1040.00
2023-05-10T00:44:43.796Z,1036.00
2023-05-10T00:45:43.833Z,1052.00
2023-05-10T00:46:43.814Z,1047.00
2023-05-10T00:47:43.843Z,1039.00
2023-05-10T00:48:43.859Z,1042.00
2023-05-10T00:49:43.889Z,1039.00
2023-05-10T00:50:43.904Z,1047.00
2023-05-10T00:51:43.899Z,1034.00
2023-05-10T00:52:43.925Z,1030.00
2023-05-10T00:53:43.946Z,1047.00
2023-05-10T00:54:43.970Z,1026.00
2023-05-10T00:55:43.991Z,1040.00
2023-05-10T00:56:44.007Z,1043.00
2023-05-10T00:57:44.022Z,1045.00
2023-05-10T00:58:44.085Z,1041.00
2023-05-10T00:59:44.067Z,1034.00
2023-05-10T01:00:44.080Z,1032.00
2023-05-10T01:01:44.174Z,1032.00
2023-05-10T01:02:44.193Z,1028.00
2023-05-10T01:03:44.133Z,1038.00
2023-05-10T01:04:44.200Z,1042.00
2023-05-10T01:05:44.169Z,1025.00
2023-05-10T01:06:44.194Z,1030.00
2023-05-10T01:07:44.212Z,1022.00
2023-05-10T01:08:44.232Z,1034.00
2023-05-10T01:09:44.252Z,1016.00
2023-05-10T01:10:44.270Z,1013.00
2023-05-10T01:11:44.295Z,1026.00
2023-05-10T01:12:44.349Z,1022.00
2023-05-10T01:13:44.369Z,1018.00
2023-05-10T01:14:44.354Z,1012.00
2023-05-10T01:15:44.465Z,1026.00
2023-05-10T01:16:44.394Z,1020.00
2023-05-10T01:17:44.480Z,1023.00
2023-05-10T01:18:44.449Z,1014.00
2023-05-10T01:19:44.450Z,1014.00
2023-05-10T01:20:44.464Z,1012.00
2023-05-10T01:21:44.489Z,1019.00
2023-05-10T01:22:44.510Z,1024.00
2023-05-10T01:23:44.548Z,1018.00
2023-05-10T01:24:44.561Z,1017.00
2023-05-10T01:25:44.563Z,1018.00
2023-05-10T01:26:44.595Z,1006.00
2023-05-10T01:27:44.628Z,1003.00
2023-05-10T01:28:44.646Z,1013.00
2023-05-10T01:29:44.663Z,1004.00
2023-05-10T01:30:44.688Z,1007.00
2023-05-10T01:31:44.746Z,1017.00
2023-05-10T01:32:44.746Z,999.00
2023-05-10T01:33:44.753Z,1017.00
2023-05-10T01:34:44.774Z,1026.00
2023-05-10T01:35:44.785Z,998.00
2023-05-10T01:36:44.807Z,1005.00
2023-05-10T01:37:44.835Z,997.00
2023-05-10T01:38:44.855Z,1005.00
2023-05-10T01:39:44.879Z,1001.00
2023-05-10T01:40:44.894Z,1000.00
2023-05-10T01:41:44.920Z,1013.00
2023-05-10T01:42:44.940Z,990.00
2023-05-10T01:43:44.971Z,999.00
2023-05-10T01:44:44.991Z,994.00
2023-05-10T01:45:44.997Z,1001.00
2023-05-10T01:46:45.036Z,986.00
2023-05-10T01:47:45.070Z,992.00
2023-05-10T01:48:45.059Z,988.00
2023-05-10T01:49:45.081Z,983.00
2023-05-10T01:50:45.106Z,984.00
2023-05-10T01:51:45.128Z,987.00
2023-05-10T01:52:45.158Z,993.00
2023-05-10T01:53:45.183Z,991.00
2023-05-10T01:54:45.185Z,1001.00
2023-05-10T01:55:45.222Z,988.00
2023-05-10T01:56:45.234Z,991.00
2023-05-10T01:57:45.248Z,997.00
2023-05-10T01:58:45.272Z,982.00
2023-05-10T01:59:45.288Z,981.00
2023-05-10T02:00:45.356Z,984.00
2023-05-10T02:01:45.337Z,981.00
2023-05-10T02:02:45.363Z,983.00
2023-05-10T02:03:45.429Z,984.00
2023-05-10T02:04:45.404Z,969.00
2023-05-10T02:05:45.420Z,970.00
2023-05-10T02:06:45.457Z,981.00
2023-05-10T02:07:45.471Z,986.00
2023-05-10T02:08:45.504Z,978.00
2023-05-10T02:09:45.527Z,988.00
2023-05-10T02:10:45.538Z,977.00
2023-05-10T02:11:45.581Z,980.00
2023-05-10T02:12:45.649Z,967.00
2023-05-10T02:13:45.636Z,964.00
2023-05-10T02:14:45.657Z,976.00
2023-05-10T02:15:45.672Z,964.00
2023-05-10T02:16:45.740Z,960.00
2023-05-10T02:17:45.812Z,983.00
2023-05-10T02:18:45.747Z,973.00
2023-05-10T02:19:45.773Z,974.00
2023-05-10T02:20:45.799Z,966.00
2023-05-10T02:21:45.814Z,956.00
2023-05-10T02:22:45.888Z,965.00
2023-05-10T02:23:45.863Z,974.00
2023-05-10T02:24:45.887Z,951.00
2023-05-10T02:25:45.889Z,970.00
2023-05-10T02:26:45.911Z,956.00
2023-05-10T02:27:45.941Z,963.00
2023-05-10T02:28:45.957Z,962.00
2023-05-10T02:29:45.987Z,967.00
2023-05-10T02:30:46.008Z,951.00
2023-05-10T02:31:46.065Z,943.00
2023-05-10T02:32:46.092Z,949.00
2023-05-10T02:33:46.072Z,953.00
2023-05-10T02:34:46.084Z,945.00
2023-05-10T02:35:46.102Z,949.00
2023-05-10T02:36:46.131Z,954.00
2023-05-10T02:37:46.164Z,956.00
2023-05-10T02:38:46.172Z,955.00
2023-05-10T02:39:46.189Z,955.00
2023-05-10T02:40:46.210Z,946.00
2023-05-10T02:41:46.233Z,944.00
2023-05-10T02:42:46.251Z,940.00
2023-05-10T02:43:46.281Z,960.00
2023-05-10T02:44:46.310Z,947.00
2023-05-10T02:45:46.331Z,948.00
2023-05-10T02:46:46.349Z,934.00
2023-05-10T02:47:46.379Z,951.00
2023-05-10T02:48:46.402Z,945.00
2023-05-10T02:49:46.415Z,950.00
2023-05-10T02:50:46.444Z,955.00
2023-05-10T02:51:46.473Z,941.00
2023-05-10T02:52:46.494Z,938.00
2023-05-10T02:53:46.510Z,952.00
2023-05-10T02:54:46.532Z,942.00
2023-05-10T02:55:46.560Z,944.00
2023-05-10T02:56:46.583Z,945.00
2023-05-10T02:57:46.612Z,937.00
2023-05-10T02:58:46.645Z,941.00
2023-05-10T02:59:46.660Z,932.00
2023-05-10T03:00:46.680Z,942.00
2023-05-10T03:01:46.742Z,944.00
2023-05-10T03:02:46.775Z,930.00
2023-05-10T03:03:46.767Z,925.00
2023-05-10T03:04:46.866Z,937.00
2023-05-10T03:05:46.809Z,927.00
2023-05-10T03:06:46.832Z,932.00
2023-05-10T03:07:46.855Z,927.00
2023-05-10T03:08:47.074Z,938.00
2023-05-10T03:09:46.900Z,934.00
2023-05-10T03:10:46.915Z,934.00
2023-05-10T03:11:46.943Z,925.00
2023-05-10T03:12:46.996Z,929.00
2023-05-10T03:13:46.995Z,936.00
2023-05-10T03:14:47.021Z,923.00
2023-05-10T03:15:47.068Z,934.00
2023-05-10T03:16:47.062Z,939.00
2023-05-10T03:17:47.149Z,916.00
2023-05-10T03:18:47.114Z,937.00
2023-05-10T03:19:47.126Z,939.00
2023-05-10T03:20:47.153Z,930.00
2023-05-10T03:21:47.174Z,932.00
2023-05-10T03:22:47.188Z,923.00
2023-05-10T03:23:47.250Z,927.00
2023-05-10T03:24:47.254Z,923.00
2023-05-10T03:25:47.271Z,908.00
2023-05-10T03:26:47.295Z,917.00
2023-05-10T03:27:47.311Z,915.00
2023-05-10T03:28:47.347Z,916.00
2023-05-10T03:29:47.361Z,918.00
2023-05-10T03:30:47.382Z,926.00
2023-05-10T03:31:47.520Z,918.00
2023-05-10T03:32:47.449Z,918.00
2023-05-10T03:33:47.454Z,904.00
2023-05-10T03:34:47.475Z,913.00
2023-05-10T03:35:47.497Z,922.00
2023-05-10T03:36:47.519Z,905.00
2023-05-10T03:37:47.548Z,899.00
2023-05-10T03:38:47.574Z,907.00
2023-05-10T03:39:47.588Z,901.00
2023-05-10T03:40:47.617Z,906.00
2023-05-10T03:41:47.637Z,917.00
2023-05-10T03:42:47.662Z,918.00
2023-05-10T03:43:47.695Z,910.00
2023-05-10T03:44:47.721Z,914.00
2023-05-10T03:45:47.734Z,901.00
2023-05-10T03:46:47.789Z,893.00
2023-05-10T03:47:47.834Z,911.00
2023-05-10T03:48:47.816Z,901.00
2023-05-10T03:49:47.841Z,909.00
2023-05-10T03:50:47.866Z,909.00
2023-05-10T03:51:47.904Z,900.00
2023-05-10T03:52:47.924Z,897.00
2023-05-10T03:53:47.960Z,897.00
2023-05-10T03:54:47.991Z,904.00
2023-05-10T03:55:48.005Z,904.00
2023-05-10T03:56:48.030Z,899.00
2023-05-10T03:57:48.051Z,889.00
2023-05-10T03:58:48.414Z,902.00
2023-05-10T03:59:48.114Z,889.00
2023-05-10T04:00:48.123Z,898.00
2023-05-10T04:01:48.245Z,894.00
2023-05-10T04:02:48.310Z,879.00
2023-05-10T04:03:48.411Z,897.00
2023-05-10T04:04:48.245Z,897.00
2023-05-10T04:05:48.268Z,890.00
2023-05-10T04:06:48.289Z,889.00
2023-05-10T04:07:48.322Z,877.00
2023-05-10T04:08:48.357Z,891.00
2023-05-10T04:09:48.369Z,892.00
2023-05-10T04:10:48.394Z,880.00
2023-05-10T04:11:48.418Z,885.00
2023-05-10T04:12:48.460Z,889.00
2023-05-10T04:13:48.476Z,902.00
2023-05-10T04:14:48.501Z,887.00
2023-05-10T04:15:48.531Z,876.00
2023-05-10T04:16:48.583Z,884.00
2023-05-10T04:17:48.616Z,881.00
2023-05-10T04:18:48.591Z,878.00
2023-05-10T04:19:48.621Z,887.00
2023-05-10T04:20:48.638Z,874.00
2023-05-10T04:21:48.663Z,890.00
2023-05-10T04:22:48.691Z,882.00
2023-05-10T04:23:48.715Z,885.00
2023-05-10T04:24:48.746Z,888.00
2023-05-10T04:25:48.771Z,875.00
2023-05-10T04:26:48.800Z,882.00
2023-05-10T04:27:48.832Z,867.00
2023-05-10T04:28:48.854Z,870.00
2023-05-10T04:29:48.884Z,868.00
2023-05-10T04:30:48.943Z,881.00
2023-05-10T04:31:48.941Z,869.00
2023-05-10T04:32:48.997Z,866.00
2023-05-10T04:33:48.997Z,876.00
2023-05-10T04:34:49.024Z,875.00
2023-05-10T04:35:49.047Z,879.00
2023-05-10T04:36:49.076Z,875.00
2023-05-10T04:37:49.099Z,871.00
2023-05-10T04:38:49.139Z,871.00
2023-05-10T04:39:49.157Z,879.00
2023-05-10T04:40:49.179Z,857.00
2023-05-10T04:41:49.209Z,866.00
2023-05-10T04:42:49.235Z,859.00
2023-05-10T04:43:49.270Z,869.00
2023-05-10T04:44:49.304Z,863.00
2023-05-10T04:45:49.314Z,866.00
2023-05-10T04:46:49.370Z,863.00
2023-05-10T04:47:49.464Z,867.00
2023-05-10T04:48:49.404Z,863.00
2023-05-10T04:49:49.434Z,858.00
2023-05-10T04:50:49.459Z,861.00
2023-05-10T04:51:49.485Z,861.00
2023-05-10T04:52:49.513Z,859.00
2023-05-10T04:53:57.810Z,857.00
2023-05-10T04:54:50.555Z,858.00
2023-05-10T04:55:49.557Z,859.00
2023-05-10T04:56:49.568Z,863.00
2023-05-10T04:57:49.599Z,857.00
2023-05-10T04:58:49.572Z,866.00
2023-05-10T04:59:50.346Z,863.00
2023-05-10T05:00:49.584Z,851.00
2023-05-10T05:01:49.627Z,859.00
2023-05-10T05:02:49.663Z,857.00
2023-05-10T05:03:49.692Z,861.00
2023-05-10T05:04:49.636Z,849.00
2023-05-10T05:05:49.629Z,856.00
2023-05-10T05:06:50.235Z,856.00
2023-05-10T05:07:49.620Z,851.00
2023-05-10T05:08:49.635Z,853.00
2023-05-10T05:09:49.718Z,824.00
2023-05-10T05:10:49.649Z,847.00
2023-05-10T05:11:49.642Z,848.00
2023-05-10T05:12:49.720Z,844.00
2023-05-10T05:13:49.653Z,845.00
2023-05-10T05:14:49.666Z,849.00
2023-05-10T05:15:49.681Z,853.00
2023-05-10T05:16:49.657Z,838.00
2023-05-10T05:17:49.670Z,849.00
2023-05-10T05:18:49.668Z,848.00
2023-05-10T05:19:49.682Z,827.00
2023-05-10T05:20:49.702Z,844.00
2023-05-10T05:21:49.729Z,849.00
2023-05-10T05:22:49.759Z,851.00
2023-05-10T05:23:49.787Z,861.00
2023-05-10T05:24:49.812Z,889.00
2023-05-10T05:25:49.824Z,904.00
2023-05-10T05:26:49.860Z,952.00
2023-05-10T05:27:49.887Z,1033.00
2023-05-10T05:28:49.921Z,1066.00
2023-05-10T05:29:49.964Z,1069.00
2023-05-10T05:30:49.991Z,1128.00
2023-05-10T05:31:50.124Z,1155.00
2023-05-10T05:32:50.211Z,1169.00
2023-05-10T05:33:50.139Z,1184.00
2023-05-10T05:34:50.328Z,1190.00
2023-05-10T05:35:50.145Z,1197.00
2023-05-10T05:36:50.170Z,1196.00
2023-05-10T05:37:50.193Z,1185.00
2023-05-10T05:38:50.220Z,1187.00
2023-05-10T05:39:50.254Z,1185.00
2023-05-10T05:40:50.265Z,1177.00
2023-05-10T05:41:50.291Z,1186.00
2023-05-10T05:42:50.345Z,1184.00
2023-05-10T05:43:50.344Z,1204.00
2023-05-10T05:44:50.365Z,1202.00
2023-05-10T05:45:50.438Z,1193.00
2023-05-10T05:46:50.406Z,1194.00
2023-05-10T05:47:50.467Z,1203.00
2023-05-10T05:48:50.483Z,1189.00
2023-05-10T05:49:50.460Z,1200.00
2023-05-10T05:50:50.479Z,1213.00
2023-05-10T05:51:50.547Z,1214.00
2023-05-10T05:52:50.549Z,1199.00
2023-05-10T05:53:50.557Z,1223.00
2023-05-10T05:54:50.590Z,1203.00
2023-05-10T05:55:50.614Z,1217.00
2023-05-10T05:56:50.624Z,1222.00
2023-05-10T05:57:50.657Z,1226.00
2023-05-10T05:58:50.674Z,1231.00
2023-05-10T05:59:50.704Z,1236.00
2023-05-10T06:00:50.790Z,1228.00
2023-05-10T06:01:50.797Z,1230.00
2023-05-10T06:02:50.799Z,1235.00
2023-05-10T06:03:53.163Z,1228.00
2023-05-10T06:04:51.041Z,1239.00
2023-05-10T06:05:52.037Z,1240.00
2023-05-10T06:06:51.039Z,1242.00
2023-05-10T06:07:51.048Z,1246.00
2023-05-10T06:08:51.036Z,1247.00
2023-05-10T06:09:51.048Z,1251.00
2023-05-10T06:10:51.049Z,1259.00
2023-05-10T06:11:51.041Z,1252.00
2023-05-10T06:12:51.977Z,1263.00
2023-05-10T06:13:51.064Z,1253.00
2023-05-10T06:14:51.086Z,1269.00
2023-05-10T06:15:51.075Z,1268.00
2023-05-10T06:16:51.116Z,1260.00
2023-05-10T06:17:51.103Z,1276.00
2023-05-10T06:18:51.105Z,1267.00
2023-05-10T06:19:51.100Z,1274.00
2023-05-10T06:20:51.102Z,1280.00
2023-05-10T06:21:53.189Z,1285.00
2023-05-10T06:22:51.105Z,1321.00
2023-05-10T06:23:51.111Z,1338.00
2023-05-10T06:24:51.105Z,1351.00
2023-05-10T06:25:51.132Z,1478.00
2023-05-10T06:26:51.123Z,1529.00
2023-05-10T06:27:53.489Z,1558.00
2023-05-10T06:28:51.464Z,1560.00
2023-05-10T06:29:54.364Z,1568.00
2023-05-10T06:30:52.172Z,1563.00
2023-05-10T06:31:51.251Z,1583.00
2023-05-10T06:32:51.185Z,1621.00
2023-05-10T06:33:51.140Z,1694.00
2023-05-10T06:34:51.131Z,1816.00
2023-05-10T06:35:51.970Z,1834.00
2023-05-10T06:36:51.143Z,1866.00
2023-05-10T06:37:51.156Z,1877.00
2023-05-10T06:38:51.173Z,1918.00
2023-05-10T06:39:51.152Z,1947.00
2023-05-10T06:40:51.156Z,1982.00
2023-05-10T06:41:51.138Z,2007.00
2023-05-10T06:42:51.136Z,2050.00
2023-05-10T06:43:51.139Z,2065.00
2023-05-10T06:44:51.119Z,2103.00
2023-05-10T06:45:51.136Z,2119.00
2023-05-10T06:46:51.298Z,2136.00
2023-05-10T06:47:51.180Z,2158.00
2023-05-10T06:48:51.152Z,2171.00
2023-05-10T06:49:51.164Z,2186.00
2023-05-10T06:50:51.150Z,2226.00
2023-05-10T06:51:51.162Z,2246.00
2023-05-10T06:52:52.964Z,2241.00
2023-05-10T06:53:51.165Z,2262.00
2023-05-10T06:54:51.161Z,2292.00
2023-05-10T06:55:51.265Z,2302.00
2023-05-10T06:56:51.293Z,2321.00
2023-05-10T06:57:51.313Z,2345.00
2023-05-10T06:58:51.403Z,2362.00
2023-05-10T06:59:51.368Z,2386.00
2023-05-10T07:00:51.415Z,2397.00
2023-05-10T07:01:51.447Z,2409.00
2023-05-10T07:02:51.478Z,2424.00
2023-05-10T07:03:51.549Z,2429.00
2023-05-10T07:04:51.635Z,2451.00
2023-05-10T07:05:51.666Z,2468.00
2023-05-10T07:06:51.713Z,2479.00
2023-05-10T07:07:51.764Z,2496.00
2023-05-10T07:08:51.813Z,2511.00
2023-05-10T07:09:51.869Z,2516.00
2023-05-10T07:10:51.930Z,2538.00
2023-05-10T07:11:52.013Z,2557.00
2023-05-10T07:12:52.146Z,2567.00
2023-05-10T07:13:52.140Z,2588.00
2023-05-10T07:14:52.217Z,2600.00
2023-05-10T07:15:52.303Z,2616.00
2023-05-10T07:16:52.351Z,2657.00
2023-05-10T07:17:52.440Z,2661.00
2023-05-10T07:18:52.418Z,2642.00
2023-05-10T07:19:52.453Z,2646.00
2023-05-10T07:20:52.513Z,2637.00
2023-05-10T07:21:52.525Z,2643.00
2023-05-10T07:22:52.576Z,2628.00
2023-05-10T07:23:52.626Z,2625.00
2023-05-10T07:24:52.634Z,2628.00
2023-05-10T07:25:52.691Z,2633.00
2023-05-10T07:26:52.736Z,2626.00
2023-05-10T07:27:52.797Z,2633.00
2023-05-10T07:28:52.832Z,2631.00
2023-05-10T07:29:53.405Z,2636.00
2023-05-10T07:30:53.036Z,2639.00
2023-05-10T07:31:53.001Z,2631.00
2023-05-10T07:32:53.023Z,2646.00
2023-05-10T07:33:53.009Z,2640.00
2023-05-10T07:34:52.996Z,2627.00
2023-05-10T07:35:52.998Z,2631.00
2023-05-10T07:36:52.995Z,2622.00
2023-05-10T07:37:53.058Z,2618.00
2023-05-10T07:38:53.109Z,2615.00
2023-05-10T07:39:53.134Z,2625.00
2023-05-10T07:40:53.169Z,2602.00
2023-05-10T07:41:53.182Z,2597.00
2023-05-10T07:42:53.192Z,2585.00
2023-05-10T07:43:53.281Z,2571.00
2023-05-10T07:44:53.270Z,2556.00
2023-05-10T07:45:56.055Z,2572.00
2023-05-10T07:46:53.305Z,2602.00
2023-05-10T07:47:53.323Z,2613.00
2023-05-10T07:48:53.314Z,2618.00
2023-05-10T07:49:53.328Z,2606.00
2023-05-10T07:50:53.325Z,2609.00
2023-05-10T07:51:53.331Z,2613.00
2023-05-10T07:52:53.519Z,2608.00
2023-05-10T07:53:53.318Z,2604.00
2023-05-10T07:54:53.327Z,2604.00
2023-05-10T07:55:53.325Z,2606.00
2023-05-10T07:56:53.328Z,2601.00
2023-05-10T07:57:53.338Z,2602.00
2023-05-10T07:58:53.344Z,2595.00
2023-05-10T07:59:53.340Z,2587.00
2023-05-10T08:00:53.348Z,2589.00
2023-05-10T08:01:53.385Z,2587.00
2023-05-10T08:02:53.414Z,2585.00
2023-05-10T08:03:53.421Z,2583.00
2023-05-10T08:04:53.348Z,2586.00
2023-05-10T08:05:53.340Z,2581.00
2023-05-10T08:06:53.353Z,2589.00
2023-05-10T08:07:53.353Z,2567.00
2023-05-10T08:08:53.343Z,2568.00
2023-05-10T08:09:53.355Z,2560.00
2023-05-10T08:10:53.355Z,2562.00
2023-05-10T08:11:53.360Z,2565.00
2023-05-10T08:12:53.365Z,2227.00
2023-05-10T08:13:53.367Z,1847.00
2023-05-10T08:14:53.374Z,1465.00
2023-05-10T08:15:54.012Z,1198.00
2023-05-10T08:16:53.384Z,934.00
2023-05-10T08:17:53.454Z,773.00
2023-05-10T08:18:53.473Z,635.00
2023-05-10T08:19:53.454Z,554.00
2023-05-10T08:20:53.467Z,489.00
2023-05-10T08:21:53.476Z,492.00
2023-05-10T08:22:53.527Z,463.00
2023-05-10T08:23:53.564Z,434.00
2023-05-10T08:24:53.583Z,435.00
2023-05-10T08:25:53.618Z,448.00
2023-05-10T08:26:53.651Z,525.00
2023-05-10T08:27:53.682Z,576.00
2023-05-10T08:28:53.704Z,620.00
2023-05-10T08:29:53.744Z,650.00
2023-05-10T08:30:53.766Z,711.00
2023-05-10T08:31:53.836Z,801.00
2023-05-10T08:32:53.818Z,839.00
2023-05-10T08:33:53.808Z,908.00
2023-05-10T08:34:53.820Z,952.00
2023-05-10T08:35:53.823Z,1010.00
2023-05-10T08:36:53.847Z,1066.00
2023-05-10T08:37:53.858Z,1105.00
2023-05-10T08:38:53.888Z,1168.00
2023-05-10T08:39:53.881Z,1223.00
2023-05-10T08:40:53.881Z,1247.00
2023-05-10T08:41:53.898Z,1287.00
2023-05-10T08:42:53.896Z,1323.00
2023-05-10T08:43:53.920Z,1358.00
2023-05-10T08:44:53.912Z,1381.00
2023-05-10T08:45:53.909Z,1429.00
2023-05-10T08:46:53.933Z,1465.00
2023-05-10T08:47:53.950Z,1496.00
2023-05-10T08:48:53.913Z,1539.00
2023-05-10T08:49:53.919Z,1578.00
2023-05-10T08:50:53.906Z,1608.00
2023-05-10T08:51:53.908Z,1654.00
2023-05-10T08:52:53.910Z,1696.00
2023-05-10T08:53:53.907Z,1747.00
2023-05-10T08:54:53.932Z,1771.00
2023-05-10T08:55:53.916Z,1813.00
2023-05-10T08:56:53.912Z,1852.00
2023-05-10T08:57:53.896Z,1882.00
2023-05-10T08:58:53.900Z,1904.00
2023-05-10T08:59:53.883Z,1952.00
2023-05-10T09:00:53.991Z,1982.00
2023-05-10T09:01:53.873Z,2015.00
2023-05-10T09:02:53.904Z,2039.00
2023-05-10T09:03:53.898Z,2079.00
2023-05-10T09:04:53.975Z,2100.00
2023-05-10T09:05:53.861Z,2148.00
2023-05-10T09:06:53.837Z,2145.00
2023-05-10T09:07:53.843Z,2184.00
2023-05-10T09:08:54.022Z,2212.00
2023-05-10T09:09:53.837Z,2251.00
2023-05-10T09:10:53.829Z,2280.00
2023-05-10T09:11:53.894Z,2312.00
2023-05-10T09:12:53.936Z,2336.00
2023-05-10T09:13:53.999Z,2363.00
2023-05-10T09:14:54.036Z,2385.00
2023-05-10T09:15:54.130Z,2401.00
2023-05-10T09:16:54.229Z,2373.00
2023-05-10T09:17:54.268Z,2033.00
2023-05-10T09:18:54.311Z,1867.00
2023-05-10T09:19:54.251Z,1724.00
2023-05-10T09:20:54.349Z,1518.00
2023-05-10T09:21:54.301Z,1754.00
2023-05-10T09:22:54.323Z,1893.00
2023-05-10T09:23:54.341Z,1954.00
2023-05-10T09:24:54.349Z,1996.00
2023-05-10T09:25:54.357Z,2032.00
2023-05-10T09:26:54.357Z,2049.00
2023-05-10T09:27:54.368Z,2071.00
2023-05-10T09:28:54.389Z,2109.00
2023-05-10T09:29:54.405Z,2118.00
2023-05-10T09:30:54.508Z,2154.00
2023-05-10T09:31:54.508Z,2170.00
2023-05-10T09:32:54.616Z,2201.00
2023-05-10T09:33:54.648Z,2247.00
2023-05-10T09:34:54.678Z,2263.00
2023-05-10T09:35:54.741Z,2298.00
2023-05-10T09:36:55.056Z,2327.00
2023-05-10T09:37:54.816Z,2362.00
2023-05-10T09:38:54.875Z,2382.00
2023-05-10T09:39:54.928Z,2404.00
2023-05-10T09:40:54.972Z,2429.00
2023-05-10T09:41:55.025Z,2454.00
2023-05-10T09:42:55.084Z,2493.00
2023-05-10T09:43:55.142Z,2505.00
2023-05-10T09:44:55.196Z,2539.00
2023-05-10T09:45:55.285Z,2560.00
2023-05-10T09:46:55.312Z,2579.00
2023-05-10T09:47:55.396Z,2602.00
2023-05-10T09:48:55.432Z,2632.00
2023-05-10T09:49:55.476Z,2653.00
2023-05-10T09:50:55.578Z,2671.00
2023-05-10T09:51:55.580Z,2694.00
2023-05-10T09:52:55.642Z,2732.00
2023-05-10T09:53:55.685Z,2744.00
2023-05-10T09:54:55.751Z,2759.00
2023-05-10T09:55:55.788Z,2786.00
2023-05-10T09:56:55.836Z,2807.00
2023-05-10T09:57:55.889Z,2839.00
2023-05-10T09:58:55.936Z,2861.00
2023-05-10T09:59:56.013Z,2884.00
2023-05-10T10:00:56.044Z,2904.00
2023-05-10T10:01:56.151Z,2927.00
2023-05-10T10:02:56.175Z,2943.00
2023-05-10T10:03:56.162Z,2974.00
2023-05-10T10:04:56.271Z,2978.00
2023-05-10T10:05:56.263Z,2999.00
2023-05-10T10:06:56.324Z,3015.00
2023-05-10T10:07:56.340Z,3038.00
2023-05-10T10:08:56.812Z,3078.00
2023-05-10T10:09:56.409Z,3103.00
2023-05-10T10:10:56.464Z,3073.00
2023-05-10T10:11:56.510Z,3109.00
2023-05-10T10:12:56.544Z,3116.00
2023-05-10T10:13:56.587Z,3115.00
2023-05-10T10:14:56.623Z,3129.00
2023-05-10T10:15:56.723Z,3126.00
2023-05-10T10:17:07.249Z,3136.00
2023-05-10T10:17:57.725Z,3137.00
2023-05-10T10:18:56.762Z,3137.00
2023-05-10T10:19:56.665Z,3137.00
2023-05-10T10:20:56.653Z,3127.00
2023-05-10T10:21:56.634Z,3131.00
2023-05-10T10:22:56.614Z,3114.00
2023-05-10T10:23:56.607Z,3115.00
2023-05-10T10:24:57.572Z,3116.00
2023-05-10T10:25:56.600Z,3134.00
2023-05-10T10:26:56.586Z,3128.00
2023-05-10T10:27:56.609Z,3113.00
2023-05-10T10:28:56.662Z,3120.00
2023-05-10T10:29:56.722Z,3126.00
2023-05-10T10:30:56.791Z,3118.00
2023-05-10T10:31:56.861Z,3119.00
2023-05-10T10:32:56.983Z,3125.00
2023-05-10T10:33:56.957Z,3131.00
2023-05-10T10:34:57.023Z,3115.00
2023-05-10T10:35:57.086Z,3127.00
2023-05-10T10:36:57.152Z,3116.00
2023-05-10T10:37:57.207Z,3110.00
2023-05-10T10:38:57.274Z,3104.00
2023-05-10T10:39:57.325Z,3104.00
2023-05-10T10:40:57.397Z,3092.00
2023-05-10T10:41:57.426Z,3110.00
2023-05-10T10:42:57.444Z,3106.00
2023-05-10T10:43:57.480Z,3101.00
2023-05-10T10:44:57.555Z,3084.00
2023-05-10T10:45:57.618Z,3077.00
2023-05-10T10:46:57.728Z,3073.00
2023-05-10T10:47:57.798Z,3076.00
2023-05-10T10:48:57.816Z,3069.00
2023-05-10T10:49:57.886Z,3074.00
2023-05-10T10:50:57.975Z,3058.00
2023-05-10T10:51:58.023Z,3062.00
2023-05-10T10:52:58.096Z,3056.00
2023-05-10T10:53:58.142Z,3061.00
2023-05-10T10:54:58.208Z,3049.00
2023-05-10T10:55:58.291Z,3040.00
2023-05-10T10:56:58.342Z,3043.00
2023-05-10T10:57:58.438Z,3039.00
2023-05-10T10:58:58.468Z,3035.00
2023-05-10T10:59:58.529Z,3026.00
2023-05-10T11:00:58.592Z,3017.00
2023-05-10T11:01:58.620Z,3008.00
2023-05-10T11:02:58.694Z,3011.00
2023-05-10T11:03:58.716Z,2976.00
2023-05-10T11:04:58.693Z,2752.00
2023-05-10T11:05:58.695Z,2705.00
2023-05-10T11:06:58.700Z,2727.00
2023-05-10T11:07:58.726Z,2718.00
2023-05-10T11:08:58.745Z,2670.00
2023-05-10T11:09:58.772Z,2564.00
2023-05-10T11:10:58.788Z,2454.00
2023-05-10T11:11:58.794Z,2175.00
2023-05-10T11:12:58.823Z,2081.00
2023-05-10T11:13:58.855Z,1972.00
2023-05-10T11:14:58.852Z,1743.00
2023-05-10T11:15:58.864Z,1633.00
2023-05-10T11:16:58.897Z,1443.00
2023-05-10T11:17:58.899Z,1431.00
2023-05-10T11:18:58.888Z,1424.00
2023-05-10T11:19:58.883Z,1371.00
2023-05-10T11:20:58.888Z,1434.00
2023-05-10T11:21:58.883Z,1432.00
2023-05-10T11:22:58.891Z,1220.00
2023-05-10T11:23:58.929Z,1132.00
2023-05-10T11:24:58.910Z,1130.00
2023-05-10T11:25:58.924Z,1160.00
2023-05-10T11:26:58.925Z,1067.00
2023-05-10T11:27:58.955Z,1014.00
2023-05-10T11:28:58.954Z,892.00
2023-05-10T11:29:58.974Z,694.00
2023-05-10T11:30:59.025Z,611.00
2023-05-10T11:31:59.048Z,561.00
2023-05-10T11:32:59.140Z,521.00
2023-05-10T11:33:59.140Z,500.00
2023-05-10T11:34:59.208Z,500.00
2023-05-10T11:35:59.244Z,500.00
2023-05-10T11:36:59.292Z,500.00
2023-05-10T11:37:59.350Z,505.00
2023-05-10T11:38:59.402Z,522.00
2023-05-10T11:39:59.457Z,564.00
2023-05-10T11:40:59.516Z,593.00
2023-05-10T11:41:59.582Z,527.00
2023-05-10T11:42:59.621Z,500.00
2023-05-10T11:43:59.687Z,500.00
2023-05-10T11:44:59.700Z,508.00
2023-05-10T11:45:59.792Z,510.00
2023-05-10T11:46:59.818Z,522.00
2023-05-10T11:47:59.948Z,523.00
2023-05-10T11:48:59.909Z,534.00
2023-05-10T11:49:59.946Z,537.00
2023-05-10T11:50:59.983Z,534.00
2023-05-10T11:52:00.010Z,531.00
2023-05-10T11:53:00.055Z,536.00
2023-05-10T11:54:00.118Z,532.00
2023-05-10T11:55:00.174Z,528.00
2023-05-10T11:56:00.156Z,542.00
2023-05-10T11:57:00.181Z,531.00
2023-05-10T11:58:00.225Z,523.00
2023-05-10T11:59:00.248Z,547.00
2023-05-10T12:00:00.276Z,544.00
2023-05-10T12:01:00.341Z,547.00
2023-05-10T12:02:00.344Z,562.00
2023-05-10T12:03:00.457Z,618.00
2023-05-10T12:04:00.651Z,661.00
2023-05-10T12:05:00.577Z,773.00
2023-05-10T12:06:00.434Z,913.00
2023-05-10T12:07:00.440Z,990.00
2023-05-10T12:08:00.451Z,1056.00
2023-05-10T12:09:00.457Z,1129.00
2023-05-10T12:10:00.470Z,1186.00
2023-05-10T12:11:00.473Z,1258.00
2023-05-10T12:12:00.523Z,1352.00
2023-05-10T12:13:00.552Z,1416.00
2023-05-10T12:14:00.636Z,1496.00
2023-05-10T12:15:00.662Z,1568.00